• Join FlightAware (Why Join?)
  • Login
  • US Flag 
06:42AM EDT


 

Airport Tracker/Info


-or-


 

Live Flight TrackerFlight Track Log ✈ MAX120 ✈ 31-Jul-2013 ✈ CYUL - CYMT

Flight Track Log - Related Links

Times and Time Zones

All times are in EDT time to prevent confusion due to time zone crossing. See the MAX120 flight status page for this flight to view local times or setup timezone preferences in your user account.

Time Position Orientation Groundspeed Altitude Reporting Facility
EDT Latitude Longitude Course Direction KTS MPH feet Rate Location/Type
09:18AM 45.7802 -73.8324 349° North  Level FlightAware Approximate
09:20AM 45.4500 -73.8000 295° West 160 184 2,600  Level Montreal Center
09:21AM 45.5000 -73.8167 347° North 180 207 3,800 1,200 Climbing Montreal Center
09:22AM 45.5500 -73.8333 347° North 180 207 5,100 1,260 Climbing Montreal Center
09:23AM 45.6000 -73.8333 360° North 180 207 6,400 1,320 Climbing Montreal Center
09:24AM 45.6500 -73.8500 347° North 180 207 7,800 1,320 Climbing Montreal Center
09:25AM 45.7000 -73.8500 360° North 180 207 9,100 1,320 Climbing Montreal Center
09:26AM 45.7500 -73.8833 335° Northwest 180 207 10,500 1,200 Climbing Montreal Center
09:27AM 45.8000 -73.8833 360° North 180 207 11,600 1,140 Climbing Montreal Center
09:28AM 45.8500 -73.8667 13° North 180 207 12,800 1,080 Climbing Montreal Center
09:29AM 45.9000 -73.8667 360° North 180 207 13,800 1,020 Climbing Montreal Center
09:30AM 45.9500 -73.9000 335° Northwest 180 207 14,900 1,020 Climbing Montreal Center
09:31AM 46.0000 -73.9000 360° North 180 207 15,900 960 Climbing Montreal Center
09:32AM 46.0667 -73.9167 350° North 170 196 16,900 960 Climbing Montreal Center
09:33AM 46.1000 -73.9167 360° North 170 196 17,900 840 Climbing Montreal Center
09:34AM 46.1500 -73.9333 347° North 170 196 18,600 720 Climbing Montreal Center
09:35AM 46.2000 -73.9333 360° North 160 184 19,400 660 Climbing Montreal Center
09:36AM 46.2333 -73.9500 341° North 160 184 20,000 600 Climbing Montreal Center
09:37AM 46.2833 -73.9500 360° North 170 196 20,700 480 Climbing Montreal Center
09:38AM 46.3333 -73.9833 335° Northwest 170 196 21,000 180 Climbing Montreal Center
09:39AM 46.3833 -73.9667 13° North 190 219 21,100  Climbing Montreal Center
09:40AM 46.4333 -73.9667 360° North 200 230 21,100 -60 Level Montreal Center
09:41AM 46.4833 -74.0000 335° Northwest 200 230 21,000 -60 Descending Montreal Center
09:42AM 46.5500 -74.0167 350° North 210 242 21,000  Level Montreal Center
09:43AM 46.6000 -74.0167 360° North 210 242 21,000  Level Montreal Center
09:44AM 46.6667 -74.0333 350° North 210 242 21,000  Level Montreal Center
09:45AM 46.7167 -74.0667 335° Northwest 210 242 21,000  Level Montreal Center
09:46AM 46.7667 -74.0500 13° North 210 242 21,000  Level Montreal Center
09:47AM 46.8333 -74.0833 341° North 210 242 21,000  Level Montreal Center
09:48AM 46.8833 -74.0833 360° North 210 242 21,000  Level Montreal Center
09:49AM 46.9500 -74.1000 350° North 210 242 21,000  Level Montreal Center
09:50AM 47.0000 -74.1000 360° North 210 242 21,000  Level Montreal Center
09:51AM 47.0667 -74.1167 350° North 210 242 21,000  Level Montreal Center
09:52AM 47.1167 -74.1500 336° Northwest 210 242 21,000  Level Montreal Center
09:53AM 47.1833 -74.1333 10° North 210 242 21,000  Level Montreal Center
09:54AM 47.2333 -74.1667 336° Northwest 210 242 21,000  Level Montreal Center
09:55AM 47.3000 -74.1667 360° North 220 253 21,000  Level Montreal Center
09:56AM 47.3500 -74.1833 347° North 220 253 21,000  Level Montreal Center
09:57AM 47.4167 -74.1833 360° North 220 253 21,000  Level Montreal Center
09:58AM 47.4667 -74.1833 360° North 220 253 21,000  Level Montreal Center
09:59AM 47.5333 -74.2000 350° North 210 242 21,000  Level Montreal Center
10:00AM 47.5833 -74.2000 360° North 220 253 21,000  Level Montreal Center
10:01AM 47.6667 -74.2167 352° North 220 253 21,000  Level Montreal Center
10:02AM 47.7333 -74.2167 360° North 220 253 21,000  Level Montreal Center
10:03AM 47.8000 -74.2500 341° North 220 253 21,000  Level Montreal Center
10:04AM 47.8500 -74.2333 13° North 220 253 21,000  Level Montreal Center
10:05AM 47.9167 -74.2333 360° North 220 253 21,000  Level Montreal Center
10:06AM 47.9667 -74.2667 336° Northwest 220 253 21,000  Level Montreal Center
10:07AM 48.0333 -74.2667 360° North 220 253 21,000  Level Montreal Center
10:08AM 48.1000 -74.2833 351° North 220 253 21,000  Level Montreal Center
10:09AM 48.1500 -74.2833 360° North 220 253 21,000  Level Montreal Center
10:10AM 48.2167 -74.3000 351° North 220 253 21,000  Level Montreal Center
10:11AM 48.2833 -74.3000 360° North 220 253 21,000  Level Montreal Center
10:12AM 48.3500 -74.3000 360° North 220 253 21,000  Level Montreal Center
10:13AM 48.4000 -74.3167 348° North 220 253 21,000  Level Montreal Center
10:14AM 48.4667 -74.3167 360° North 220 253 21,000 -180 Level Montreal Center
10:15AM 48.5333 -74.3500 342° North 230 265 20,700 -660 Descending Montreal Center
10:16AM 48.6000 -74.3333 North 240 276 19,700 -1,140 Descending Montreal Center
10:17AM 48.6667 -74.3667 342° North 240 276 18,500 -1,140 Descending Montreal Center
10:18AM 48.7333 -74.3667 360° North 240 276 17,500 -1,140 Descending Montreal Center
10:19AM 48.8000 -74.3833 351° North 240 276 16,300 -1,140 Descending Montreal Center
10:20AM 48.8500 -74.4000 348° North 240 276 15,300 -1,140 Descending Montreal Center
10:21AM 48.9167 -74.4333 342° North 240 276 14,100 -1,200 Descending Montreal Center
10:22AM 48.9833 -74.4500 351° North 230 265 13,000 -1,200 Descending Montreal Center
10:23AM 49.0500 -74.4833 342° North 230 265 11,800 -1,140 Descending Montreal Center
10:24AM 49.1167 -74.5000 351° North 230 265 10,800 -1,140 Descending Montreal Center
10:25AM 49.2000 -74.5333 345° North 230 265 9,600 -1,200 Descending Montreal Center
10:26AM 49.2500 -74.5167 12° North 230 265 8,500 -1,200 Descending Montreal Center
10:27AM 49.3167 -74.5500 342° North 230 265 7,300 -1,200 Descending Montreal Center
10:28AM 49.3833 -74.5667 351° North 220 253 6,200 -1,080 Descending Montreal Center
10:29AM 49.4333 -74.6000 337° Northwest 220 253 5,200 -1,140 Descending Montreal Center
10:30AM 49.5000 -74.6167 351° North 220 253 4,000 -960 Descending Montreal Center
10:31AM 49.5500 -74.6500 337° Northwest 220 253 3,300 -360 Descending Montreal Center
10:32AM 49.6000 -74.6500 360° North 200 230 3,300  Level Montreal Center
10:33AM 49.6500 -74.6167 23° Northeast 160 184 3,300 -60 Level Montreal Center
10:34AM 49.6833 -74.5833 33° Northeast 150 173 3,200 -600 Descending Montreal Center
10:35AM 49.7167 -74.5667 18° North 140 161 2,100 -900 Descending Montreal Center
10:36AM 49.7500 -74.5333 33° Northeast 130 150 1,500 -600 Descending Montreal Center